TimeEDT,TemperatureF,Dew PointF,Humidity,Sea Level PressureIn,VisibilityMPH,Wind Direction,Wind SpeedMPH,Gust SpeedMPH,PrecipitationIn,Events,Conditions,WindDirDegrees,DateUTC
12:56 AM,64.0,62.1,93,29.98,10.0,Calm,Calm,-,N/A,,Overcast,0,2013-05-11 04:56:00
1:56 AM,64.9,62.1,90,29.96,10.0,SW,3.5,-,N/A,,Overcast,230,2013-05-11 05:56:00
2:56 AM,64.0,61.0,90,29.94,10.0,SSW,4.6,-,N/A,,Mostly Cloudy,210,2013-05-11 06:56:00
3:56 AM,64.0,61.0,90,29.94,10.0,Calm,Calm,-,N/A,,Overcast,0,2013-05-11 07:56:00
4:56 AM,63.0,61.0,93,29.93,10.0,Calm,Calm,-,N/A,,Mostly Cloudy,0,2013-05-11 08:56:00
5:56 AM,63.0,61.0,93,29.93,10.0,Calm,Calm,-,N/A,,Overcast,0,2013-05-11 09:56:00
6:56 AM,62.1,60.1,93,29.93,8.0,Calm,Calm,-,N/A,,Partly Cloudy,0,2013-05-11 10:56:00
7:56 AM,64.0,61.0,90,29.93,8.0,Calm,Calm,-,N/A,,Clear,0,2013-05-11 11:56:00
8:56 AM,69.1,61.0,75,29.94,10.0,WSW,5.8,-,N/A,,Clear,240,2013-05-11 12:56:00
9:56 AM,72.0,62.1,71,29.94,10.0,West,9.2,-,N/A,,Clear,280,2013-05-11 13:56:00
10:56 AM,73.9,61.0,64,29.93,10.0,WSW,10.4,-,N/A,,Partly Cloudy,250,2013-05-11 14:56:00
11:56 AM,75.9,61.0,60,29.91,10.0,SW,11.5,17.3,N/A,,Scattered Clouds,230,2013-05-11 15:56:00
12:56 PM,75.0,63.0,66,29.93,10.0,SW,10.4,-,N/A,,Overcast,230,2013-05-11 16:56:00
1:26 PM,69.8,64.4,83,29.95,1.8,West,6.9,-,0.08,Rain,Heavy Rain,270,2013-05-11 17:26:00
1:35 PM,69.8,66.2,88,29.95,3.0,West,8.1,-,0.09,Rain,Rain,280,2013-05-11 17:35:00
1:56 PM,69.1,66.9,93,29.92,8.0,West,8.1,-,0.14,Rain,Light Rain,270,2013-05-11 17:56:00
2:56 PM,73.0,64.9,76,29.91,10.0,WSW,6.9,-,0.00,,Scattered Clouds,250,2013-05-11 18:56:00
3:56 PM,75.0,64.9,71,29.88,10.0,WSW,8.1,-,N/A,,Partly Cloudy,250,2013-05-11 19:56:00
4:56 PM,75.9,62.1,62,29.87,10.0,WSW,13.8,-,N/A,,Clear,240,2013-05-11 20:56:00
5:56 PM,77.0,62.1,60,29.85,10.0,WSW,17.3,-,N/A,,Partly Cloudy,240,2013-05-11 21:56:00
6:56 PM,73.9,62.1,66,29.85,10.0,SW,10.4,-,N/A,,Clear,220,2013-05-11 22:56:00
7:56 PM,73.0,62.1,68,29.86,10.0,WSW,8.1,-,N/A,,Clear,240,2013-05-11 23:56:00
8:56 PM,64.0,62.1,93,29.88,5.0,WSW,5.8,-,0.12,Rain,Heavy Rain,240,2013-05-12 00:56:00
9:56 PM,64.0,63.0,96,29.89,10.0,South,5.8,-,0.02,,Overcast,190,2013-05-12 01:56:00